Time;durP1;ratioP1;P1;durP2;ratioP2;P2;SDS_P1;SDS_P2;PMS_P1;PMS_P2;Temp;Humidity;BMP_temperature;BMP_pressure;BME280_temperature;BME280_humidity;BME280_pressure;Samples;Min_cycle;Max_cycle;Signal;HPM_P1;HPM_P2
2021/10/17 00:01:52;;;;;;;94.93;41.58;;;7.10;59.60;;;;;;5056035;28;20131;-68
2021/10/17 00:04:26;;;;;;;80.55;37.38;;;7.30;60.00;;;;;;5055811;28;20049;-69
2021/10/17 00:06:54;;;;;;;85.97;35.35;;;7.20;60.00;;;;;;5061980;28;20048;-69
2021/10/17 00:09:22;;;;;;;86.70;35.05;;;7.20;60.10;;;;;;5053643;28;20696;-69
2021/10/17 00:11:52;;;;;;;90.22;33.67;;;7.10;60.00;;;;;;5059758;28;20068;-68
2021/10/17 00:14:24;;;;;;;69.47;29.88;;;7.10;60.10;;;;;;5062911;28;20052;-69
2021/10/17 00:16:55;;;;;;;109.57;27.52;;;7.10;60.20;;;;;;5059198;28;20056;-68
2021/10/17 00:19:27;;;;;;;63.38;25.42;;;7.00;59.90;;;;;;5057241;28;20040;-69
2021/10/17 00:21:55;;;;;;;84.90;27.80;;;7.00;59.90;;;;;;5062586;28;20048;-69
2021/10/17 00:24:25;;;;;;;58.72;26.50;;;7.00;59.80;;;;;;5054455;28;20435;-69
2021/10/17 00:26:54;;;;;;;56.63;28.63;;;7.10;59.90;;;;;;5060623;28;20134;-69
2021/10/17 00:29:22;;;;;;;53.25;27.30;;;7.00;60.00;;;;;;5060637;28;20074;-68
2021/10/17 00:31:50;;;;;;;85.38;28.27;;;7.10;60.00;;;;;;5054746;28;20709;-68
2021/10/17 00:34:18;;;;;;;47.17;24.85;;;7.10;60.00;;;;;;5059359;28;20131;-68
2021/10/17 00:36:48;;;;;;;41.35;23.50;;;7.10;60.20;;;;;;5057579;28;20083;-69
2021/10/17 00:39:16;;;;;;;45.85;24.10;;;7.10;60.00;;;;;;5051615;28;20515;-68
2021/10/17 00:41:46;;;;;;;42.97;23.13;;;7.10;60.20;;;;;;5055725;28;20551;-68
2021/10/17 00:44:21;;;;;;;35.33;20.40;;;7.10;60.40;;;;;;5052750;28;20504;-68
2021/10/17 00:46:52;;;;;;;30.85;19.88;;;7.10;60.30;;;;;;5051531;28;20531;-69
2021/10/17 00:49:24;;;;;;;26.27;18.00;;;7.00;60.40;;;;;;5050633;28;20036;-70
2021/10/17 00:51:58;;;;;;;27.73;18.00;;;6.80;60.50;;;;;;5047477;28;20064;-69
2021/10/17 00:54:26;;;;;;;25.95;18.02;;;6.80;60.40;;;;;;5046983;28;20041;-69
2021/10/17 00:56:56;;;;;;;23.40;17.52;;;6.80;60.40;;;;;;5051274;28;20049;-69
2021/10/17 00:59:24;;;;;;;27.55;16.90;;;6.70;60.30;;;;;;5046565;28;20044;-69
2021/10/17 01:01:55;;;;;;;25.33;17.52;;;6.60;60.20;;;;;;5047715;28;20468;-68
2021/10/17 01:04:23;;;;;;;25.52;17.60;;;6.50;60.00;;;;;;5046738;28;20127;-69
2021/10/17 01:06:55;;;;;;;23.25;17.20;;;6.60;59.90;;;;;;5051709;28;20051;-69
2021/10/17 01:09:24;;;;;;;22.90;16.75;;;6.50;59.90;;;;;;5051008;28;20076;-69
2021/10/17 01:11:52;;;;;;;26.65;17.83;;;6.40;59.80;;;;;;5050487;28;20041;-70
2021/10/17 01:14:25;;;;;;;22.42;16.50;;;6.40;60.40;;;;;;5046431;28;20515;-69
2021/10/17 01:17:03;;;;;;;25.35;17.70;;;6.50;59.80;;;;;;5055579;28;20259;-70
2021/10/17 01:19:32;;;;;;;28.85;17.95;;;6.40;59.80;;;;;;5050194;28;20044;-69
2021/10/17 01:22:05;;;;;;;33.13;18.50;;;6.30;59.30;;;;;;5045836;28;20053;-69
2021/10/17 01:24:35;;;;;;;36.13;20.38;;;6.30;59.40;;;;;;5050843;28;20067;-69
2021/10/17 01:27:06;;;;;;;40.53;20.63;;;6.30;59.50;;;;;;5049325;28;20060;-69
2021/10/17 01:29:35;;;;;;;38.05;22.23;;;6.30;59.40;;;;;;5052907;28;20056;-70
2021/10/17 01:32:06;;;;;;;35.60;21.10;;;6.20;59.30;;;;;;5052124;28;20055;-70
2021/10/17 01:34:34;;;;;;;38.70;21.95;;;6.20;59.20;;;;;;5046691;28;20063;-69
2021/10/17 01:37:06;;;;;;;37.90;21.38;;;6.20;59.20;;;;;;5052935;28;20051;-70
2021/10/17 01:39:34;;;;;;;36.15;20.42;;;6.20;59.20;;;;;;5051302;28;20092;-70
2021/10/17 01:42:04;;;;;;;38.67;20.90;;;6.00;59.60;;;;;;5045343;28;20416;-70
2021/10/17 01:44:36;;;;;;;35.20;20.83;;;6.00;59.00;;;;;;5048305;28;20049;-69
2021/10/17 01:47:07;;;;;;;34.58;20.33;;;6.10;59.10;;;;;;5050276;28;20048;-69
2021/10/17 01:49:36;;;;;;;35.90;21.05;;;6.00;59.10;;;;;;5047157;28;20404;-70
2021/10/17 01:52:08;;;;;;;52.28;22.05;;;6.00;59.00;;;;;;5047032;28;20505;-70
2021/10/17 01:54:36;;;;;;;43.25;21.33;;;6.00;58.90;;;;;;5047641;28;20135;-69
2021/10/17 01:57:05;;;;;;;46.13;21.55;;;5.90;58.80;;;;;;5051967;28;20045;-70
2021/10/17 01:59:33;;;;;;;35.35;21.75;;;5.90;58.80;;;;;;5053804;28;20152;-70
2021/10/17 02:02:05;;;;;;;40.65;22.52;;;5.90;58.80;;;;;;5047535;28;20571;-69
2021/10/17 02:04:36;;;;;;;33.05;21.38;;;5.80;58.30;;;;;;5049164;28;20037;-70
2021/10/17 02:07:07;;;;;;;50.38;23.80;;;5.80;58.70;;;;;;5048352;28;20090;-70
2021/10/17 02:09:35;;;;;;;47.13;24.55;;;5.80;58.50;;;;;;5015275;28;20131;-70
2021/10/17 02:12:04;;;;;;;37.17;22.27;;;5.70;58.40;;;;;;5051767;28;20408;-71
2021/10/17 02:14:37;;;;;;;35.55;22.50;;;5.70;58.70;;;;;;5049087;28;20135;-70
2021/10/17 02:17:06;;;;;;;39.38;21.30;;;5.70;59.20;;;;;;5051379;28;20456;-70
2021/10/17 02:19:35;;;;;;;36.30;22.42;;;5.70;58.70;;;;;;5036997;28;20507;-70
2021/10/17 02:22:03;;;;;;;36.30;22.80;;;5.70;58.60;;;;;;5049848;28;20036;-70
2021/10/17 02:24:32;;;;;;;38.80;23.17;;;5.70;58.60;;;;;;5050035;28;20049;-70
2021/10/17 02:27:00;;;;;;;37.85;23.20;;;5.60;58.50;;;;;;5051080;28;20076;-70
2021/10/17 02:29:28;;;;;;;35.50;22.85;;;5.60;58.30;;;;;;5048189;28;20057;-70
2021/10/17 02:31:59;;;;;;;34.90;22.23;;;5.50;57.90;;;;;;5048112;28;20501;-70
2021/10/17 02:34:30;;;;;;;36.38;23.08;;;5.50;58.10;;;;;;5051054;28;20052;-68
2021/10/17 02:37:02;;;;;;;37.30;22.50;;;5.40;57.90;;;;;;5046912;28;20056;-70
2021/10/17 02:39:31;;;;;;;34.13;22.23;;;5.40;58.20;;;;;;5050093;28;20063;-69
2021/10/17 02:42:03;;;;;;;35.33;21.20;;;5.40;58.40;;;;;;5046817;28;20057;-70
2021/10/17 02:44:32;;;;;;;32.28;21.08;;;5.40;58.40;;;;;;5046374;28;20067;-70
2021/10/17 02:47:05;;;;;;;32.45;21.23;;;5.30;58.30;;;;;;5054949;28;20052;-70
2021/10/17 02:49:38;;;;;;;30.42;20.58;;;5.30;58.30;;;;;;5050906;28;20118;-70
2021/10/17 02:52:10;;;;;;;35.22;20.73;;;5.30;58.30;;;;;;5047789;28;20053;-70
2021/10/17 02:54:44;;;;;;;33.80;21.67;;;5.30;58.30;;;;;;5047825;28;20113;-70
2021/10/17 02:57:13;;;;;;;36.20;19.75;;;5.30;58.30;;;;;;5046016;28;20478;-70
2021/10/17 02:59:41;;;;;;;101.03;27.08;;;5.30;58.30;;;;;;5051990;28;20131;-70
2021/10/17 03:02:12;;;;;;;46.65;21.98;;;5.30;58.30;;;;;;5049723;28;20045;-69
2021/10/17 03:04:45;;;;;;;41.25;21.17;;;5.30;58.30;;;;;;5046122;28;20040;-69
2021/10/17 03:07:13;;;;;;;46.40;19.63;;;5.30;58.30;;;;;;5054186;28;20116;-69
2021/10/17 03:09:41;;;;;;;42.63;20.83;;;5.20;58.30;;;;;;5052872;28;20108;-69
2021/10/17 03:12:14;;;;;;;29.58;19.98;;;5.20;58.20;;;;;;5016385;28;20106;-70
2021/10/17 03:14:42;;;;;;;38.42;21.08;;;5.10;58.10;;;;;;5051212;28;20071;-69
2021/10/17 03:17:10;;;;;;;27.80;19.60;;;5.20;58.30;;;;;;5048897;28;20791;-69
2021/10/17 03:19:38;;;;;;;37.72;19.33;;;5.30;58.30;;;;;;5051904;28;20182;-69
2021/10/17 03:22:06;;;;;;;32.50;18.98;;;5.30;58.40;;;;;;5048685;28;20072;-69
2021/10/17 03:24:37;;;;;;;31.73;18.50;;;5.20;58.10;;;;;;5049182;28;20122;-69
2021/10/17 03:27:08;;;;;;;53.83;21.63;;;5.20;58.00;;;;;;5049273;28;20053;-68
2021/10/17 03:29:37;;;;;;;36.33;17.98;;;5.00;57.70;;;;;;5055012;28;20069;-69
2021/10/17 03:32:08;;;;;;;29.27;17.05;;;4.90;57.70;;;;;;5051384;28;20049;-69
2021/10/17 03:34:37;;;;;;;142.38;22.77;;;4.80;57.30;;;;;;5034618;28;20049;-69
2021/10/17 03:37:05;;;;;;;132.02;21.60;;;4.80;57.50;;;;;;5050036;28;20049;-70
2021/10/17 03:39:37;;;;;;;88.85;20.75;;;4.70;57.50;;;;;;5050781;28;20033;-69
2021/10/17 03:42:06;;;;;;;25.20;16.58;;;4.70;57.50;;;;;;5057600;28;20064;-69
2021/10/17 03:44:34;;;;;;;22.85;15.77;;;4.80;57.70;;;;;;5051074;28;20124;-69
2021/10/17 03:47:05;;;;;;;25.30;17.08;;;4.80;57.80;;;;;;5052222;28;20063;-69
2021/10/17 03:49:33;;;;;;;26.00;16.55;;;4.80;57.80;;;;;;5051637;28;20115;-69
2021/10/17 03:52:01;;;;;;;28.60;18.10;;;4.80;57.80;;;;;;5048914;28;20045;-70
2021/10/17 03:54:34;;;;;;;40.05;20.05;;;4.90;57.90;;;;;;5047394;28;20037;-68
2021/10/17 03:57:01;;;;;;;38.38;19.80;;;4.90;58.00;;;;;;5051469;28;20087;-69
2021/10/17 03:59:29;;;;;;;98.22;27.08;;;4.80;57.90;;;;;;5049577;28;20584;-69
2021/10/17 04:02:01;;;;;;;114.35;27.65;;;4.80;57.80;;;;;;5053770;28;20045;-69
2021/10/17 04:04:31;;;;;;;151.75;30.23;;;4.90;57.90;;;;;;5045959;28;20041;-69
2021/10/17 04:07:01;;;;;;;52.50;24.13;;;4.90;57.90;;;;;;5048888;28;20459;-69
2021/10/17 04:09:31;;;;;;;66.28;25.77;;;4.90;58.00;;;;;;5053995;28;20041;-69
2021/10/17 04:12:01;;;;;;;159.68;30.15;;;4.90;57.90;;;;;;5053517;28;20056;-68
2021/10/17 04:14:30;;;;;;;121.43;29.90;;;4.90;58.00;;;;;;5050180;28;20095;-69
2021/10/17 04:17:00;;;;;;;54.88;25.20;;;4.80;57.90;;;;;;5060888;28;20048;-70
2021/10/17 04:19:28;;;;;;;39.92;22.98;;;4.80;57.90;;;;;;5056365;28;20394;-69
2021/10/17 04:21:57;;;;;;;44.33;23.05;;;4.70;57.90;;;;;;5056527;28;20064;-69
2021/10/17 04:24:29;;;;;;;53.10;24.80;;;4.70;57.80;;;;;;5060682;28;20105;-69
2021/10/17 04:27:02;;;;;;;40.17;23.15;;;4.80;57.90;;;;;;5057510;28;20511;-69
2021/10/17 04:29:30;;;;;;;35.10;21.60;;;4.70;57.90;;;;;;5059113;28;20080;-69
2021/10/17 04:31:58;;;;;;;42.20;23.88;;;4.70;57.90;;;;;;5061215;28;20131;-69
2021/10/17 04:34:30;;;;;;;39.47;22.23;;;4.80;57.90;;;;;;5054342;28;20052;-69
2021/10/17 04:37:00;;;;;;;40.55;23.63;;;4.80;58.00;;;;;;5062144;28;20072;-69
2021/10/17 04:39:33;;;;;;;38.30;23.30;;;4.80;58.00;;;;;;5064399;28;20040;-69
2021/10/17 04:42:05;;;;;;;43.92;23.90;;;4.90;58.10;;;;;;5055662;28;20044;-69
2021/10/17 04:44:34;;;;;;;41.45;25.58;;;4.80;58.00;;;;;;5058103;28;20052;-69
2021/10/17 04:47:02;;;;;;;37.08;24.38;;;4.80;58.00;;;;;;5062107;28;20076;-69
2021/10/17 04:49:34;;;;;;;51.55;23.95;;;4.80;58.00;;;;;;5058526;28;20074;-68
2021/10/17 04:52:03;;;;;;;43.95;25.60;;;4.70;57.90;;;;;;5061938;28;20048;-69
2021/10/17 04:54:36;;;;;;;48.65;26.60;;;4.80;58.00;;;;;;5058527;28;20053;-69
2021/10/17 04:57:04;;;;;;;35.03;22.63;;;4.80;58.00;;;;;;5055907;28;20087;-69
2021/10/17 04:59:34;;;;;;;43.55;24.08;;;4.80;58.00;;;;;;5058983;28;20199;-70
2021/10/17 05:02:02;;;;;;;45.83;23.73;;;4.80;58.00;;;;;;5057096;28;20068;-70
2021/10/17 05:04:32;;;;;;;38.30;22.17;;;4.80;58.00;;;;;;5055075;28;20165;-69
2021/10/17 05:07:05;;;;;;;45.28;22.63;;;4.70;57.90;;;;;;5059220;28;20479;-69
2021/10/17 05:09:36;;;;;;;40.05;23.70;;;4.70;57.80;;;;;;5059072;28;20400;-69
2021/10/17 05:12:07;;;;;;;38.35;22.85;;;4.80;57.90;;;;;;5054989;28;20220;-69
2021/10/17 05:14:38;;;;;;;37.55;22.35;;;4.90;58.10;;;;;;5060734;28;20046;-69
2021/10/17 05:17:08;;;;;;;37.70;24.13;;;4.70;57.90;;;;;;5057930;28;20151;-69
2021/10/17 05:19:38;;;;;;;35.67;22.95;;;4.90;58.10;;;;;;5058794;28;20037;-69
2021/10/17 05:22:09;;;;;;;41.10;23.70;;;4.80;57.90;;;;;;5059025;28;20135;-69
2021/10/17 05:24:38;;;;;;;37.60;22.40;;;4.80;57.90;;;;;;5056679;28;20048;-69
2021/10/17 05:27:06;;;;;;;38.38;22.33;;;4.80;57.80;;;;;;5062179;28;20497;-69
2021/10/17 05:29:34;;;;;;;38.42;21.67;;;4.90;58.00;;;;;;5059694;28;20063;-69
2021/10/17 05:32:02;;;;;;;36.60;23.25;;;4.90;57.70;;;;;;5054741;28;20120;-69
2021/10/17 05:34:30;;;;;;;39.03;22.55;;;5.00;58.00;;;;;;5057049;28;20357;-70
2021/10/17 05:36:58;;;;;;;32.45;21.75;;;5.00;57.80;;;;;;5056110;28;20421;-69
2021/10/17 05:39:32;;;;;;;35.38;21.73;;;5.00;57.60;;;;;;5053573;28;20044;-69
2021/10/17 05:42:03;;;;;;;33.60;20.02;;;5.00;57.40;;;;;;5061699;28;20041;-69
2021/10/17 05:44:31;;;;;;;35.85;20.58;;;5.00;57.10;;;;;;5056820;28;20080;-69
2021/10/17 05:46:59;;;;;;;33.38;19.80;;;5.00;57.10;;;;;;5058129;28;20492;-70
2021/10/17 05:49:28;;;;;;;33.10;19.92;;;4.90;56.20;;;;;;5068964;28;20644;-69
2021/10/17 05:52:00;;;;;;;31.35;19.90;;;4.90;56.50;;;;;;5053290;28;20519;-70
2021/10/17 05:54:28;;;;;;;30.58;19.25;;;5.00;56.50;;;;;;5053138;28;20041;-69
2021/10/17 05:56:59;;;;;;;31.17;19.02;;;5.00;55.20;;;;;;5064519;28;20048;-70
2021/10/17 05:59:30;;;;;;;31.17;18.30;;;5.00;54.40;;;;;;5056118;28;20072;-69
2021/10/17 06:02:00;;;;;;;26.63;16.83;;;5.00;54.40;;;;;;5056913;28;20032;-69
2021/10/17 06:04:29;;;;;;;22.92;14.93;;;5.00;54.50;;;;;;5054089;28;20074;-69
2021/10/17 06:06:56;;;;;;;27.27;16.98;;;5.10;55.40;;;;;;5054622;28;20611;-69
2021/10/17 06:09:26;;;;;;;22.75;15.25;;;5.10;54.70;;;;;;5056456;28;20119;-68
2021/10/17 06:11:55;;;;;;;23.85;14.35;;;5.10;54.40;;;;;;5048645;28;20565;-69
2021/10/17 06:14:27;;;;;;;22.08;14.90;;;5.10;54.10;;;;;;5050986;28;20139;-69
2021/10/17 06:16:58;;;;;;;22.25;14.45;;;5.20;54.40;;;;;;5062381;28;20075;-69
2021/10/17 06:19:26;;;;;;;20.58;13.85;;;5.20;55.00;;;;;;5054807;28;20052;-69
2021/10/17 06:22:03;;;;;;;23.20;15.82;;;5.20;54.30;;;;;;5055295;28;20032;-69
2021/10/17 06:24:34;;;;;;;26.35;15.77;;;5.30;54.30;;;;;;5057004;28;20090;-69
2021/10/17 06:27:04;;;;;;;24.77;16.42;;;5.20;54.40;;;;;;5057262;28;20066;-68
2021/10/17 06:29:34;;;;;;;27.83;18.35;;;5.20;54.70;;;;;;5057532;28;20116;-69
2021/10/17 06:32:03;;;;;;;28.95;17.85;;;5.20;56.10;;;;;;5060560;28;20040;-69
2021/10/17 06:34:36;;;;;;;27.40;17.77;;;5.20;55.20;;;;;;5037235;28;20037;-70
2021/10/17 06:37:04;;;;;;;27.55;18.02;;;5.40;56.30;;;;;;5057108;28;20130;-70
2021/10/17 06:39:32;;;;;;;30.40;18.85;;;5.30;56.20;;;;;;5056110;28;20054;-70
2021/10/17 06:42:00;;;;;;;26.63;17.60;;;5.50;56.90;;;;;;5052818;28;20056;-69
2021/10/17 06:44:28;;;;;;;40.13;19.75;;;5.50;55.00;;;;;;5063171;28;20041;-68
2021/10/17 06:47:02;;;;;;;45.38;17.67;;;5.50;55.80;;;;;;5061415;28;20135;-68
2021/10/17 06:49:32;;;;;;;29.77;18.70;;;5.40;55.90;;;;;;5058402;28;20124;-69
2021/10/17 06:52:02;;;;;;;45.00;17.30;;;5.50;56.80;;;;;;5061406;28;20040;-69
2021/10/17 06:54:30;;;;;;;36.97;19.42;;;5.70;57.10;;;;;;5060578;28;20071;-69
2021/10/17 06:56:58;;;;;;;46.80;18.70;;;5.70;56.50;;;;;;5064205;28;20624;-69
2021/10/17 06:59:27;;;;;;;51.90;17.45;;;5.70;56.60;;;;;;5051997;28;20036;-69
2021/10/17 07:01:55;;;;;;;27.30;15.95;;;5.70;56.80;;;;;;5054470;28;20552;-69
2021/10/17 07:04:27;;;;;;;26.77;16.40;;;5.80;56.50;;;;;;5059618;28;20555;-69
2021/10/17 07:06:55;;;;;;;28.08;16.80;;;5.80;56.60;;;;;;5058156;28;20056;-70
2021/10/17 07:09:23;;;;;;;28.23;16.05;;;5.80;56.60;;;;;;5060448;28;20071;-70
2021/10/17 07:11:52;;;;;;;26.92;16.23;;;5.90;57.60;;;;;;5067406;28;20080;-70
2021/10/17 07:14:25;;;;;;;30.13;17.33;;;6.00;57.00;;;;;;5063175;28;20113;-70
2021/10/17 07:16:53;;;;;;;25.50;16.33;;;6.00;55.10;;;;;;5057979;28;20470;-69
2021/10/17 07:19:22;;;;;;;27.45;16.10;;;6.00;56.40;;;;;;5068280;28;20574;-69
2021/10/17 07:21:52;;;;;;;31.00;16.50;;;6.00;55.70;;;;;;5056893;28;20135;-70
2021/10/17 07:24:23;;;;;;;27.52;16.45;;;6.10;56.90;;;;;;5063406;28;20052;-69
2021/10/17 07:26:55;;;;;;;32.22;17.23;;;6.00;56.70;;;;;;5064660;28;20059;-70
2021/10/17 07:29:24;;;;;;;33.13;17.17;;;6.10;57.50;;;;;;5059015;28;20040;-71
2021/10/17 07:31:52;;;;;;;30.33;17.10;;;6.10;57.30;;;;;;5063926;28;20083;-70
2021/10/17 07:34:20;;;;;;;49.75;18.25;;;6.20;57.50;;;;;;5063723;28;20068;-69
2021/10/17 07:36:48;;;;;;;35.05;19.15;;;6.20;57.10;;;;;;5056814;28;20482;-69
2021/10/17 07:39:20;;;;;;;47.33;18.25;;;6.10;56.60;;;;;;5061277;28;20059;-69
2021/10/17 07:41:50;;;;;;;44.67;16.92;;;6.20;57.10;;;;;;5057323;28;20136;-70
2021/10/17 07:44:18;;;;;;;52.72;17.70;;;6.20;57.20;;;;;;5057099;28;20488;-69
2021/10/17 07:46:49;;;;;;;44.13;17.85;;;6.10;56.60;;;;;;5066026;28;20079;-70
2021/10/17 07:49:18;;;;;;;57.47;16.98;;;6.20;57.30;;;;;;5057243;28;20470;-69
2021/10/17 07:51:46;;;;;;;38.47;16.25;;;6.40;58.10;;;;;;5057218;28;20102;-69
2021/10/17 07:54:18;;;;;;;58.92;18.35;;;6.20;56.60;;;;;;5060364;28;20071;-70
2021/10/17 07:56:48;;;;;;;38.05;16.98;;;6.20;57.20;;;;;;5058688;28;20511;-70
2021/10/17 07:59:16;;;;;;;46.70;16.77;;;6.20;57.70;;;;;;5059774;28;20059;-69
2021/10/17 08:01:44;;;;;;;42.03;16.75;;;6.40;58.00;;;;;;5063085;28;20182;-69
2021/10/17 08:04:16;;;;;;;44.10;16.98;;;6.60;57.80;;;;;;5053707;28;20512;-70
2021/10/17 08:06:45;;;;;;;33.03;17.20;;;6.50;56.50;;;;;;5063015;28;20511;-70
2021/10/17 08:09:13;;;;;;;29.88;16.42;;;6.70;57.00;;;;;;5064420;28;20078;-70
2021/10/17 08:11:45;;;;;;;29.05;15.52;;;6.80;54.70;;;;;;5055036;28;20047;-70
2021/10/17 08:14:15;;;;;;;32.03;16.45;;;6.40;53.20;;;;;;5062225;28;20057;-70
2021/10/17 08:16:43;;;;;;;24.35;14.70;;;6.40;55.40;;;;;;5056889;28;20102;-69
2021/10/17 08:19:15;;;;;;;25.13;14.20;;;6.60;55.90;;;;;;5056935;28;20051;-68
2021/10/17 08:21:44;;;;;;;24.08;13.95;;;6.80;56.00;;;;;;5066596;28;20048;-69
2021/10/17 08:24:16;;;;;;;28.35;14.32;;;6.90;54.10;;;;;;5055126;28;20036;-70
2021/10/17 08:26:46;;;;;;;28.17;14.00;;;7.10;53.10;;;;;;5060769;28;20079;-70
2021/10/17 08:29:16;;;;;;;24.33;13.40;;;6.80;47.80;;;;;;5064159;28;20215;-70
2021/10/17 08:31:44;;;;;;;25.75;14.35;;;6.70;50.40;;;;;;5060261;28;20040;-69
2021/10/17 08:34:15;;;;;;;25.85;13.25;;;6.90;53.30;;;;;;5059883;28;20053;-69
2021/10/17 08:36:44;;;;;;;24.83;12.82;;;7.30;50.80;;;;;;5058763;28;20102;-70
2021/10/17 08:39:29;;;;;;;22.85;13.05;;;7.40;50.20;;;;;;5055321;28;20650;-69
2021/10/17 08:41:57;;;;;;;20.67;11.85;;;7.40;46.20;;;;;;5060547;28;20126;-69
2021/10/17 08:44:29;;;;;;;23.83;11.85;;;7.20;45.50;;;;;;5058191;28;20685;-69
2021/10/17 08:47:00;;;;;;;21.75;11.52;;;7.10;45.60;;;;;;5056618;28;20083;-70
2021/10/17 08:49:32;;;;;;;19.00;10.80;;;7.00;46.90;;;;;;5065918;28;20098;-69
2021/10/17 08:52:00;;;;;;;23.08;11.30;;;7.10;50.80;;;;;;5058312;28;20091;-69
2021/10/17 08:54:28;;;;;;;18.23;10.98;;;6.70;49.70;;;;;;5056956;28;20163;-69
2021/10/17 08:56:56;;;;;;;21.13;11.05;;;6.90;48.20;;;;;;5059056;28;20135;-70
2021/10/17 08:59:24;;;;;;;19.92;10.48;;;7.20;49.90;;;;;;5057996;28;20053;-69
2021/10/17 09:01:56;;;;;;;24.23;10.10;;;7.20;49.10;;;;;;5054283;28;20427;-68
2021/10/17 09:04:27;;;;;;;25.10;9.98;;;6.90;47.60;;;;;;5057105;28;20163;-69
2021/10/17 09:06:56;;;;;;;23.65;10.40;;;6.80;50.20;;;;;;5057953;28;20049;-68
2021/10/17 09:09:27;;;;;;;16.02;10.02;;;6.90;49.50;;;;;;5055812;28;20055;-69
2021/10/17 09:11:58;;;;;;;19.73;10.68;;;7.10;50.80;;;;;;5063269;28;20064;-69
2021/10/17 09:14:28;;;;;;;15.73;9.60;;;7.10;49.00;;;;;;5055472;28;20177;-69
2021/10/17 09:16:58;;;;;;;17.02;9.85;;;7.30;49.50;;;;;;5057319;28;20041;-69
2021/10/17 09:19:28;;;;;;;18.30;9.98;;;7.20;49.50;;;;;;5062385;28;20504;-69
2021/10/17 09:22:02;;;;;;;18.60;10.52;;;7.20;46.30;;;;;;5054055;28;20071;-69
2021/10/17 09:24:38;;;;;;;18.80;10.32;;;7.40;49.20;;;;;;5061454;28;20044;-69
2021/10/17 09:27:15;;;;;;;19.00;10.70;;;7.30;47.00;;;;;;5062862;28;20522;-69
2021/10/17 09:29:45;;;;;;;20.25;10.50;;;7.30;48.30;;;;;;5056442;28;20056;-69
2021/10/17 09:32:17;;;;;;;21.80;11.30;;;7.30;48.10;;;;;;5057858;28;20072;-69
2021/10/17 09:34:55;;;;;;;20.63;11.80;;;7.40;48.80;;;;;;5058872;28;20765;-69
2021/10/17 09:37:31;;;;;;;19.48;10.80;;;7.40;48.20;;;;;;5053043;28;20167;-70
2021/10/17 09:40:07;;;;;;;18.05;10.93;;;7.60;48.90;;;;;;5059887;28;20515;-70
2021/10/17 09:42:40;;;;;;;19.42;11.32;;;7.90;47.90;;;;;;5062306;28;20115;-70
2021/10/17 09:45:22;;;;;;;20.40;11.98;;;7.60;44.40;;;;;;5056226;28;20533;-70
2021/10/17 09:47:51;;;;;;;19.40;11.10;;;7.70;44.90;;;;;;5054653;28;20044;-70
2021/10/17 09:50:23;;;;;;;16.70;10.55;;;7.80;46.70;;;;;;5056335;28;20049;-69
2021/10/17 09:53:01;;;;;;;18.63;11.75;;;8.00;43.20;;;;;;5030272;28;20437;-69
2021/10/17 09:55:32;;;;;;;18.25;10.85;;;7.70;41.60;;;;;;5051679;28;20614;-71
2021/10/17 09:58:03;;;;;;;17.67;10.73;;;7.80;46.70;;;;;;5059579;28;20131;-70
2021/10/17 10:00:34;;;;;;;19.40;11.73;;;7.60;43.50;;;;;;5055412;28;20044;-70
2021/10/17 10:03:08;;;;;;;20.02;12.98;;;7.80;46.90;;;;;;5056412;28;20400;-70
2021/10/17 10:05:42;;;;;;;21.63;13.52;;;8.20;48.10;;;;;;5056322;28;20036;-70
2021/10/17 10:08:11;;;;;;;23.65;13.07;;;7.90;46.00;;;;;;5055645;28;20511;-70
2021/10/17 10:10:41;;;;;;;20.80;12.82;;;7.80;46.30;;;;;;5058017;28;20064;-70
2021/10/17 10:13:16;;;;;;;20.20;12.57;;;7.70;45.10;;;;;;5057287;28;20040;-70
2021/10/17 10:15:49;;;;;;;19.25;12.55;;;7.60;47.00;;;;;;5027346;28;20124;-70
2021/10/17 10:18:22;;;;;;;20.95;12.88;;;8.00;48.90;;;;;;5048912;28;20055;-70
2021/10/17 10:20:50;;;;;;;21.52;12.35;;;8.30;46.40;;;;;;5055228;28;20048;-70
2021/10/17 10:23:20;;;;;;;20.10;12.52;;;8.10;39.10;;;;;;5057401;28;20045;-71
2021/10/17 10:25:51;;;;;;;21.23;12.38;;;8.40;41.30;;;;;;5051674;28;20045;-70
2021/10/17 10:28:21;;;;;;;23.85;13.73;;;8.20;42.00;;;;;;5055276;28;20700;-70
2021/10/17 10:30:50;;;;;;;20.17;13.13;;;8.20;43.20;;;;;;5057571;28;20045;-70
2021/10/17 10:33:21;;;;;;;25.52;14.00;;;8.20;44.90;;;;;;5056978;28;20792;-69
2021/10/17 10:36:09;;;;;;;25.25;14.50;;;8.00;40.50;;;;;;5050639;28;20136;-72
2021/10/17 10:39:21;;;;;;;28.75;13.48;;;8.00;46.70;;;;;;5060899;28;20045;-68
2021/10/17 10:41:57;;;;;;;26.17;14.10;;;8.30;44.90;;;;;;5057279;28;20094;-70
2021/10/17 10:44:28;;;;;;;21.55;14.20;;;8.40;44.40;;;;;;5055752;28;20286;-69
2021/10/17 10:46:57;;;;;;;26.55;14.00;;;8.60;41.70;;;;;;5051439;28;20080;-70
2021/10/17 10:49:47;;;;;;;22.80;13.88;;;8.60;41.30;;;;;;5055825;28;20049;-69
2021/10/17 10:52:43;;;;;;;23.13;14.35;;;8.60;41.90;;;;;;5057146;28;20479;-70
2021/10/17 10:55:14;;;;;;;26.20;14.65;;;8.50;44.60;;;;;;5052307;28;20140;-70
2021/10/17 10:57:44;;;;;;;23.85;15.20;;;8.50;45.00;;;;;;5056941;28;20087;-69
2021/10/17 11:00:19;;;;;;;24.60;13.68;;;8.60;44.50;;;;;;5060784;28;20128;-69
2021/10/17 11:03:11;;;;;;;28.23;15.52;;;8.40;43.50;;;;;;5055284;28;20044;-70
2021/10/17 11:05:41;;;;;;;26.23;15.32;;;8.60;43.10;;;;;;5054749;28;20041;-69
2021/10/17 11:08:14;;;;;;;26.08;15.50;;;8.50;42.90;;;;;;5062067;28;20128;-69
2021/10/17 11:10:46;;;;;;;25.73;14.63;;;8.50;45.10;;;;;;5051812;28;20037;-68
2021/10/17 11:13:30;;;;;;;27.75;15.65;;;8.60;42.60;;;;;;5059997;28;20040;-70
2021/10/17 11:15:59;;;;;;;27.23;15.23;;;8.70;44.40;;;;;;5060985;28;20121;-70
2021/10/17 11:18:36;;;;;;;26.02;15.23;;;8.70;43.60;;;;;;5052237;28;20156;-69
2021/10/17 11:21:11;;;;;;;25.63;14.63;;;8.60;45.20;;;;;;5053615;28;20041;-70
2021/10/17 11:23:44;;;;;;;25.42;14.55;;;8.60;44.80;;;;;;5055126;28;20075;-70
2021/10/17 11:26:14;;;;;;;25.45;14.65;;;8.80;43.00;;;;;;5052831;28;20044;-68
2021/10/17 11:28:49;;;;;;;26.55;15.27;;;8.70;42.10;;;;;;5055369;28;20063;-69
2021/10/17 11:31:24;;;;;;;29.85;15.23;;;8.80;46.70;;;;;;5057708;28;20056;-71
2021/10/17 11:33:55;;;;;;;;;;;8.80;39.90;;;;;;5056427;28;20037;-70
2021/10/17 11:36:26;;;;;;;26.80;14.48;;;8.70;40.60;;;;;;5055446;28;19924;-70
2021/10/17 11:38:55;;;;;;;25.40;14.23;;;8.60;42.40;;;;;;5055436;28;20138;-70
2021/10/17 11:41:27;;;;;;;27.48;15.52;;;8.60;45.10;;;;;;5055972;28;20131;-70
2021/10/17 11:43:56;;;;;;;27.23;16.33;;;8.80;43.00;;;;;;5056838;28;20099;-69
2021/10/17 11:46:29;;;;;;;27.33;15.95;;;8.90;43.40;;;;;;5056291;28;20045;-71
2021/10/17 11:49:04;;;;;;;27.43;15.50;;;9.00;44.00;;;;;;5055588;28;20378;-69
2021/10/17 11:51:35;;;;;;;27.63;16.73;;;8.90;45.40;;;;;;5053744;28;20499;-69
2021/10/17 11:54:03;;;;;;;26.27;15.88;;;9.20;40.60;;;;;;5056780;28;20056;-69
2021/10/17 11:56:34;;;;;;;29.95;17.42;;;9.10;39.90;;;;;;5053450;28;20411;-69
2021/10/17 11:59:12;;;;;;;27.80;16.60;;;9.00;40.30;;;;;;5057681;28;20090;-69
2021/10/17 12:01:43;;;;;;;28.30;16.63;;;9.20;39.50;;;;;;5057895;28;20055;-69
2021/10/17 12:04:15;;;;;;;27.05;17.30;;;9.40;38.00;;;;;;5056342;28;20052;-70
2021/10/17 12:06:49;;;;;;;29.40;17.02;;;9.30;35.80;;;;;;5057746;28;20041;-69
2021/10/17 12:09:20;;;;;;;;;;;9.40;37.50;;;;;;5061041;28;20422;-69
2021/10/17 12:11:48;;;;;;;24.95;15.45;;;9.40;37.50;;;;;;5055935;28;19975;-69
2021/10/17 12:14:26;;;;;;;24.00;15.68;;;9.50;34.30;;;;;;5060706;28;20492;-69
2021/10/17 12:16:55;;;;;;;28.73;16.45;;;9.20;37.30;;;;;;5062537;28;20107;-69
2021/10/17 12:19:26;;;;;;;28.02;16.85;;;9.40;38.30;;;;;;5055840;28;20040;-69
2021/10/17 12:22:00;;;;;;;27.75;17.60;;;9.40;36.00;;;;;;5058347;28;20127;-69
2021/10/17 12:24:30;;;;;;;27.90;16.85;;;9.00;37.90;;;;;;5063615;28;20052;-70
2021/10/17 12:26:58;;;;;;;25.77;17.27;;;9.40;37.70;;;;;;5056838;28;20041;-69
2021/10/17 12:29:29;;;;;;;30.83;18.38;;;9.40;37.50;;;;;;5062182;28;20409;-69
2021/10/17 12:32:01;;;;;;;25.23;16.08;;;9.40;37.50;;;;;;5054315;28;20041;-69
2021/10/17 12:34:40;;;;;;;28.85;16.77;;;9.40;37.50;;;;;;5056367;28;20045;-69
2021/10/17 12:37:12;;;;;;;28.15;18.02;;;9.30;37.40;;;;;;5054486;28;20068;-69
2021/10/17 12:39:40;;;;;;;30.08;18.48;;;9.30;37.40;;;;;;5054266;28;20470;-70
2021/10/17 12:42:09;;;;;;;26.98;16.77;;;9.40;38.90;;;;;;5053281;28;20095;-70
2021/10/17 12:44:44;;;;;;;29.42;17.77;;;9.50;35.40;;;;;;5062557;28;20055;-69
2021/10/17 12:47:13;;;;;;;26.20;17.80;;;9.60;37.60;;;;;;5056125;28;20037;-69
2021/10/17 12:49:46;;;;;;;29.40;17.63;;;9.60;36.50;;;;;;5052930;28;20132;-69
2021/10/17 12:52:29;;;;;;;28.77;17.42;;;9.50;36.50;;;;;;5056865;28;20070;-69
2021/10/17 12:55:01;;;;;;;31.17;18.70;;;9.40;39.10;;;;;;5053284;28;20052;-69
2021/10/17 12:57:29;;;;;;;28.17;18.00;;;9.50;36.20;;;;;;5038104;28;20060;-69